sensor_id;sensor_type;location;lat;lon;timestamp;pressure;altitude;pressure_sealevel;temperature;humidity
63405;BME280;49541;57.840;12.306;2023-06-26T00:04:50;100748.06;;;17.89;68.29
63405;BME280;49541;57.840;12.306;2023-06-26T00:09:54;100737.91;;;17.99;67.43
63405;BME280;49541;57.840;12.306;2023-06-26T00:14:54;100730.78;;;17.75;66.61
63405;BME280;49541;57.840;12.306;2023-06-26T00:19:54;100732.56;;;17.59;66.90
63405;BME280;49541;57.840;12.306;2023-06-26T00:24:54;100727.97;;;17.68;66.67
63405;BME280;49541;57.840;12.306;2023-06-26T00:29:54;100725.44;;;17.67;66.85
63405;BME280;49541;57.840;12.306;2023-06-26T00:34:55;100718.88;;;17.69;66.81
63405;BME280;49541;57.840;12.306;2023-06-26T00:39:55;100717.16;;;17.37;66.78
63405;BME280;49541;57.840;12.306;2023-06-26T00:44:55;100705.72;;;17.43;66.77
63405;BME280;49541;57.840;12.306;2023-06-26T00:49:55;100701.28;;;17.50;66.54
63405;BME280;49541;57.840;12.306;2023-06-26T00:54:56;100701.84;;;17.37;67.31
63405;BME280;49541;57.840;12.306;2023-06-26T00:59:56;100693.25;;;17.42;67.80
63405;BME280;49541;57.840;12.306;2023-06-26T01:04:56;100700.72;;;17.32;67.06
63405;BME280;49541;57.840;12.306;2023-06-26T01:09:57;100693.66;;;17.23;67.18
63405;BME280;49541;57.840;12.306;2023-06-26T01:14:57;100684.13;;;17.12;67.11
63405;BME280;49541;57.840;12.306;2023-06-26T01:20:02;100689.06;;;17.00;66.73
63405;BME280;49541;57.840;12.306;2023-06-26T01:25:12;100678.16;;;16.85;65.38
63405;BME280;49541;57.840;12.306;2023-06-26T01:30:17;100678.81;;;16.95;65.88
63405;BME280;49541;57.840;12.306;2023-06-26T01:35:19;100675.63;;;16.75;67.01
63405;BME280;49541;57.840;12.306;2023-06-26T01:40:19;100662.06;;;16.28;66.78
63405;BME280;49541;57.840;12.306;2023-06-26T01:45:23;100667.25;;;16.62;66.53
63405;BME280;49541;57.840;12.306;2023-06-26T01:50:25;100659.38;;;16.36;67.48
63405;BME280;49541;57.840;12.306;2023-06-26T02:00:26;100660.72;;;16.32;68.09
63405;BME280;49541;57.840;12.306;2023-06-26T02:05:27;100663.94;;;16.27;68.29
63405;BME280;49541;57.840;12.306;2023-06-26T02:10:27;100652.19;;;16.20;68.21
63405;BME280;49541;57.840;12.306;2023-06-26T02:15:27;100647.47;;;16.06;68.83
63405;BME280;49541;57.840;12.306;2023-06-26T02:20:27;100640.59;;;16.03;69.26
63405;BME280;49541;57.840;12.306;2023-06-26T02:25:27;100646.31;;;16.33;69.10
63405;BME280;49541;57.840;12.306;2023-06-26T02:30:27;100641.09;;;15.90;71.30
63405;BME280;49541;57.840;12.306;2023-06-26T02:35:28;100634.88;;;15.82;72.03
63405;BME280;49541;57.840;12.306;2023-06-26T02:40:28;100633.19;;;15.81;72.42
63405;BME280;49541;57.840;12.306;2023-06-26T02:45:28;100626.16;;;16.12;72.07
63405;BME280;49541;57.840;12.306;2023-06-26T02:50:28;100629.69;;;15.88;72.28
63405;BME280;49541;57.840;12.306;2023-06-26T02:55:28;100618.22;;;15.70;72.06
63405;BME280;49541;57.840;12.306;2023-06-26T03:00:29;100623.78;;;15.76;71.62
63405;BME280;49541;57.840;12.306;2023-06-26T03:05:29;100619.19;;;15.52;71.23
63405;BME280;49541;57.840;12.306;2023-06-26T03:10:30;100618.22;;;15.70;71.44
63405;BME280;49541;57.840;12.306;2023-06-26T03:15:30;100611.91;;;15.79;70.12
63405;BME280;49541;57.840;12.306;2023-06-26T03:20:30;100605.31;;;15.65;68.08
63405;BME280;49541;57.840;12.306;2023-06-26T03:25:31;100604.19;;;15.92;67.84
63405;BME280;49541;57.840;12.306;2023-06-26T03:30:31;100598.94;;;15.66;68.17
63405;BME280;49541;57.840;12.306;2023-06-26T03:35:31;100594.91;;;15.54;69.06
63405;BME280;49541;57.840;12.306;2023-06-26T03:40:32;100600.09;;;15.55;70.86
63405;BME280;49541;57.840;12.306;2023-06-26T03:45:32;100599.97;;;15.73;68.53
63405;BME280;49541;57.840;12.306;2023-06-26T03:50:32;100592.13;;;15.96;67.28
63405;BME280;49541;57.840;12.306;2023-06-26T03:55:32;100590.75;;;16.09;67.62
63405;BME280;49541;57.840;12.306;2023-06-26T04:00:34;100584.19;;;16.20;67.49
63405;BME280;49541;57.840;12.306;2023-06-26T04:05:34;100585.88;;;16.37;66.04
63405;BME280;49541;57.840;12.306;2023-06-26T04:10:34;100568.19;;;16.43;66.32
63405;BME280;49541;57.840;12.306;2023-06-26T04:15:36;100569.81;;;16.68;68.09
63405;BME280;49541;57.840;12.306;2023-06-26T04:20:39;100566.94;;;16.78;68.75
63405;BME280;49541;57.840;12.306;2023-06-26T04:25:40;100561.97;;;17.29;71.96
63405;BME280;49541;57.840;12.306;2023-06-26T04:30:41;100574.38;;;17.61;72.84
63405;BME280;49541;57.840;12.306;2023-06-26T04:35:41;100562.19;;;17.51;72.64
63405;BME280;49541;57.840;12.306;2023-06-26T04:40:41;100558.56;;;17.12;72.27
63405;BME280;49541;57.840;12.306;2023-06-26T04:45:41;100560.88;;;17.47;74.80
63405;BME280;49541;57.840;12.306;2023-06-26T04:50:41;100555.84;;;17.67;75.18
63405;BME280;49541;57.840;12.306;2023-06-26T04:55:42;100544.97;;;17.83;75.71
63405;BME280;49541;57.840;12.306;2023-06-26T05:00:42;100546.75;;;17.91;75.59
63405;BME280;49541;57.840;12.306;2023-06-26T05:05:42;100536.09;;;17.97;81.34
63405;BME280;49541;57.840;12.306;2023-06-26T05:10:46;100531.22;;;18.31;79.55
63405;BME280;49541;57.840;12.306;2023-06-26T05:15:46;100530.53;;;18.73;80.80
63405;BME280;49541;57.840;12.306;2023-06-26T05:20:46;100536.38;;;19.07;79.27
63405;BME280;49541;57.840;12.306;2023-06-26T05:25:47;100534.31;;;19.45;78.05
63405;BME280;49541;57.840;12.306;2023-06-26T05:30:47;100537.78;;;19.39;79.93
63405;BME280;49541;57.840;12.306;2023-06-26T05:35:47;100514.25;;;19.76;77.38
63405;BME280;49541;57.840;12.306;2023-06-26T05:40:48;100508.84;;;19.76;78.04
63405;BME280;49541;57.840;12.306;2023-06-26T05:45:48;100514.34;;;19.89;75.35
63405;BME280;49541;57.840;12.306;2023-06-26T05:50:49;100504.28;;;20.33;74.51
63405;BME280;49541;57.840;12.306;2023-06-26T05:55:49;100500.91;;;20.59;73.47
63405;BME280;49541;57.840;12.306;2023-06-26T06:00:49;100505.34;;;20.80;72.02
63405;BME280;49541;57.840;12.306;2023-06-26T06:05:49;100506.88;;;20.96;71.65
63405;BME280;49541;57.840;12.306;2023-06-26T06:10:50;100507.13;;;21.14;70.19
63405;BME280;49541;57.840;12.306;2023-06-26T06:15:50;100505.72;;;21.38;68.83
63405;BME280;49541;57.840;12.306;2023-06-26T06:20:50;100503.03;;;21.98;66.31
63405;BME280;49541;57.840;12.306;2023-06-26T06:25:50;100493.63;;;22.34;65.00
63405;BME280;49541;57.840;12.306;2023-06-26T06:30:50;100495.09;;;23.27;61.95
63405;BME280;49541;57.840;12.306;2023-06-26T06:35:51;100490.25;;;23.92;57.70
63405;BME280;49541;57.840;12.306;2023-06-26T06:40:51;100483.13;;;24.53;52.62
63405;BME280;49541;57.840;12.306;2023-06-26T06:45:51;100472.06;;;24.30;51.65
63405;BME280;49541;57.840;12.306;2023-06-26T06:50:51;100467.41;;;24.37;51.39
63405;BME280;49541;57.840;12.306;2023-06-26T06:55:52;100465.69;;;24.91;48.67
63405;BME280;49541;57.840;12.306;2023-06-26T07:00:52;100464.91;;;25.03;48.05
63405;BME280;49541;57.840;12.306;2023-06-26T07:05:52;100459.09;;;24.99;49.48
63405;BME280;49541;57.840;12.306;2023-06-26T07:10:52;100457.13;;;25.06;50.16
63405;BME280;49541;57.840;12.306;2023-06-26T07:15:52;100454.78;;;26.11;45.06
63405;BME280;49541;57.840;12.306;2023-06-26T07:20:53;100444.34;;;25.61;47.60
63405;BME280;49541;57.840;12.306;2023-06-26T07:25:53;100439.22;;;26.35;45.32
63405;BME280;49541;57.840;12.306;2023-06-26T07:30:53;100440.59;;;26.61;43.94
63405;BME280;49541;57.840;12.306;2023-06-26T07:35:53;100432.91;;;26.75;44.14
63405;BME280;49541;57.840;12.306;2023-06-26T07:40:53;100433.88;;;26.28;45.67
63405;BME280;49541;57.840;12.306;2023-06-26T07:45:53;100428.69;;;26.55;44.96
63405;BME280;49541;57.840;12.306;2023-06-26T07:50:54;100414.03;;;26.57;44.41
63405;BME280;49541;57.840;12.306;2023-06-26T07:55:54;100413.25;;;27.35;42.16
63405;BME280;49541;57.840;12.306;2023-06-26T08:00:54;100402.44;;;27.41;43.15
63405;BME280;49541;57.840;12.306;2023-06-26T08:05:54;100400.28;;;27.82;41.72
63405;BME280;49541;57.840;12.306;2023-06-26T08:10:55;100396.19;;;27.62;41.84
63405;BME280;49541;57.840;12.306;2023-06-26T08:15:55;100392.50;;;27.34;42.95
63405;BME280;49541;57.840;12.306;2023-06-26T08:20:55;100386.63;;;27.82;41.89
63405;BME280;49541;57.840;12.306;2023-06-26T08:25:55;100385.63;;;27.32;42.08
63405;BME280;49541;57.840;12.306;2023-06-26T08:30:58;100381.16;;;27.43;42.39
63405;BME280;49541;57.840;12.306;2023-06-26T08:35:59;100358.19;;;27.83;42.01
63405;BME280;49541;57.840;12.306;2023-06-26T08:40:59;100357.50;;;28.36;41.97
63405;BME280;49541;57.840;12.306;2023-06-26T08:46:00;100349.25;;;28.81;40.90
63405;BME280;49541;57.840;12.306;2023-06-26T08:51:01;100351.06;;;29.02;40.30
63405;BME280;49541;57.840;12.306;2023-06-26T08:56:05;100339.78;;;29.26;40.20
63405;BME280;49541;57.840;12.306;2023-06-26T09:01:07;100321.41;;;28.94;40.14
63405;BME280;49541;57.840;12.306;2023-06-26T09:06:07;100320.25;;;29.17;40.21
63405;BME280;49541;57.840;12.306;2023-06-26T09:11:07;100303.38;;;29.35;39.19
63405;BME280;49541;57.840;12.306;2023-06-26T09:16:08;100298.16;;;29.82;38.59
63405;BME280;49541;57.840;12.306;2023-06-26T09:21:08;100304.25;;;29.99;38.53
63405;BME280;49541;57.840;12.306;2023-06-26T09:26:09;100303.88;;;30.53;37.82
63405;BME280;49541;57.840;12.306;2023-06-26T09:31:09;100296.13;;;30.25;38.57
63405;BME280;49541;57.840;12.306;2023-06-26T09:36:18;100286.28;;;30.49;38.99
63405;BME280;49541;57.840;12.306;2023-06-26T09:41:19;100276.38;;;30.33;37.47
63405;BME280;49541;57.840;12.306;2023-06-26T09:46:26;100273.09;;;29.63;39.55
63405;BME280;49541;57.840;12.306;2023-06-26T09:51:26;100260.19;;;30.36;37.92
63405;BME280;49541;57.840;12.306;2023-06-26T09:56:29;100251.63;;;30.12;38.12
63405;BME280;49541;57.840;12.306;2023-06-26T10:01:30;100245.56;;;30.10;38.23
63405;BME280;49541;57.840;12.306;2023-06-26T10:06:35;100239.56;;;30.18;37.14
63405;BME280;49541;57.840;12.306;2023-06-26T10:12:11;100229.91;;;30.00;38.94
63405;BME280;49541;57.840;12.306;2023-06-26T10:17:05;100219.28;;;30.60;35.67
63405;BME280;49541;57.840;12.306;2023-06-26T10:22:07;100211.00;;;31.12;35.72
63405;BME280;49541;57.840;12.306;2023-06-26T10:27:20;100217.06;;;30.78;36.07
63405;BME280;49541;57.840;12.306;2023-06-26T10:32:21;100204.97;;;30.84;35.03
63405;BME280;49541;57.840;12.306;2023-06-26T10:42:43;100202.88;;;31.61;34.57
63405;BME280;49541;57.840;12.306;2023-06-26T10:47:47;100196.16;;;32.28;33.09
63405;BME280;49541;57.840;12.306;2023-06-26T10:58:26;100198.44;;;32.55;32.47
63405;BME280;49541;57.840;12.306;2023-06-26T11:03:29;100185.25;;;32.81;31.04
63405;BME280;49541;57.840;12.306;2023-06-26T11:08:44;100181.19;;;32.73;31.16
63405;BME280;49541;57.840;12.306;2023-06-26T11:13:46;100175.34;;;33.04;29.98
63405;BME280;49541;57.840;12.306;2023-06-26T11:18:47;100173.59;;;33.61;30.40
63405;BME280;49541;57.840;12.306;2023-06-26T11:23:47;100180.09;;;32.98;30.13
63405;BME280;49541;57.840;12.306;2023-06-26T11:28:52;100178.03;;;32.21;30.74
63405;BME280;49541;57.840;12.306;2023-06-26T11:33:53;100158.31;;;32.09;31.55
63405;BME280;49541;57.840;12.306;2023-06-26T11:38:54;100165.63;;;32.24;30.70
63405;BME280;49541;57.840;12.306;2023-06-26T11:43:54;100164.91;;;32.77;29.29
63405;BME280;49541;57.840;12.306;2023-06-26T11:48:55;100150.16;;;34.16;26.69
63405;BME280;49541;57.840;12.306;2023-06-26T11:53:55;100150.50;;;32.85;27.79
63405;BME280;49541;57.840;12.306;2023-06-26T11:58:56;100133.94;;;31.92;28.49
63405;BME280;49541;57.840;12.306;2023-06-26T12:03:58;100122.50;;;33.21;26.93
63405;BME280;49541;57.840;12.306;2023-06-26T12:09:00;100126.28;;;33.30;26.87
63405;BME280;49541;57.840;12.306;2023-06-26T12:14:01;100114.72;;;33.28;25.93
63405;BME280;49541;57.840;12.306;2023-06-26T12:19:02;100101.75;;;33.29;25.65
63405;BME280;49541;57.840;12.306;2023-06-26T12:24:03;100099.94;;;34.60;23.78
63405;BME280;49541;57.840;12.306;2023-06-26T12:29:04;100097.91;;;32.57;26.49
63405;BME280;49541;57.840;12.306;2023-06-26T12:34:08;100083.34;;;31.43;27.82
63405;BME280;49541;57.840;12.306;2023-06-26T12:39:09;100086.03;;;31.93;26.69
63405;BME280;49541;57.840;12.306;2023-06-26T12:44:16;100073.88;;;31.65;27.10
63405;BME280;49541;57.840;12.306;2023-06-26T12:49:17;100065.03;;;31.68;27.30
63405;BME280;49541;57.840;12.306;2023-06-26T12:54:17;100050.34;;;31.38;28.55
63405;BME280;49541;57.840;12.306;2023-06-26T12:59:18;100033.69;;;30.59;28.96
63405;BME280;49541;57.840;12.306;2023-06-26T13:04:18;100022.56;;;30.95;28.47
63405;BME280;49541;57.840;12.306;2023-06-26T13:09:18;100018.84;;;31.20;28.74
63405;BME280;49541;57.840;12.306;2023-06-26T13:14:18;100011.19;;;31.17;28.38
63405;BME280;49541;57.840;12.306;2023-06-26T13:19:18;100007.25;;;30.79;29.19
63405;BME280;49541;57.840;12.306;2023-06-26T13:24:19;99996.09;;;30.45;30.51
63405;BME280;49541;57.840;12.306;2023-06-26T13:29:19;99991.97;;;30.47;30.13
63405;BME280;49541;57.840;12.306;2023-06-26T13:34:20;99979.34;;;30.51;30.39
63405;BME280;49541;57.840;12.306;2023-06-26T13:39:22;99986.84;;;30.95;30.47
63405;BME280;49541;57.840;12.306;2023-06-26T13:44:22;99982.06;;;31.16;29.99
63405;BME280;49541;57.840;12.306;2023-06-26T13:49:22;99971.75;;;30.93;30.67
63405;BME280;49541;57.840;12.306;2023-06-26T13:54:22;99964.34;;;30.02;31.69
63405;BME280;49541;57.840;12.306;2023-06-26T13:59:23;99966.25;;;30.12;31.96
63405;BME280;49541;57.840;12.306;2023-06-26T14:04:25;99956.19;;;30.73;31.60
63405;BME280;49541;57.840;12.306;2023-06-26T14:09:25;99956.44;;;30.76;31.58
63405;BME280;49541;57.840;12.306;2023-06-26T14:14:26;99962.91;;;30.46;30.75
63405;BME280;49541;57.840;12.306;2023-06-26T14:19:26;99959.91;;;30.32;31.36
63405;BME280;49541;57.840;12.306;2023-06-26T14:24:26;99970.69;;;29.77;31.79
63405;BME280;49541;57.840;12.306;2023-06-26T14:29:26;100011.50;;;25.12;48.50
63405;BME280;49541;57.840;12.306;2023-06-26T14:34:27;100037.31;;;23.56;56.12
63405;BME280;49541;57.840;12.306;2023-06-26T14:39:27;100018.63;;;23.18;57.45
63405;BME280;49541;57.840;12.306;2023-06-26T14:44:27;100041.41;;;22.61;59.63
63405;BME280;49541;57.840;12.306;2023-06-26T14:49:27;100057.38;;;22.26;60.55
63405;BME280;49541;57.840;12.306;2023-06-26T14:54:27;100090.50;;;22.03;62.37
63405;BME280;49541;57.840;12.306;2023-06-26T14:59:27;100096.41;;;21.61;63.93
63405;BME280;49541;57.840;12.306;2023-06-26T15:04:28;100090.97;;;21.16;64.63
63405;BME280;49541;57.840;12.306;2023-06-26T15:09:28;100099.25;;;20.70;67.63
63405;BME280;49541;57.840;12.306;2023-06-26T15:14:28;100108.38;;;20.55;69.20
63405;BME280;49541;57.840;12.306;2023-06-26T15:19:28;100124.19;;;20.12;71.97
63405;BME280;49541;57.840;12.306;2023-06-26T15:24:28;100109.34;;;19.68;76.17
63405;BME280;49541;57.840;12.306;2023-06-26T15:29:29;100105.69;;;19.95;78.23
63405;BME280;49541;57.840;12.306;2023-06-26T15:34:29;100111.69;;;19.84;79.28
63405;BME280;49541;57.840;12.306;2023-06-26T15:39:29;100102.59;;;19.98;78.49
63405;BME280;49541;57.840;12.306;2023-06-26T15:44:29;100086.63;;;19.35;84.21
63405;BME280;49541;57.840;12.306;2023-06-26T15:49:30;100067.84;;;18.72;87.36
63405;BME280;49541;57.840;12.306;2023-06-26T15:54:31;100072.75;;;18.62;89.76
63405;BME280;49541;57.840;12.306;2023-06-26T15:59:31;100074.91;;;18.45;91.21
63405;BME280;49541;57.840;12.306;2023-06-26T16:04:31;100064.72;;;18.40;90.76
63405;BME280;49541;57.840;12.306;2023-06-26T16:09:32;100067.09;;;18.78;89.66
63405;BME280;49541;57.840;12.306;2023-06-26T16:14:32;100059.34;;;19.10;86.05
63405;BME280;49541;57.840;12.306;2023-06-26T16:19:33;100059.81;;;19.27;87.64
63405;BME280;49541;57.840;12.306;2023-06-26T16:24:33;100057.41;;;19.59;83.21
63405;BME280;49541;57.840;12.306;2023-06-26T16:29:33;100019.03;;;19.97;83.08
63405;BME280;49541;57.840;12.306;2023-06-26T16:34:33;100014.63;;;20.42;81.06
63405;BME280;49541;57.840;12.306;2023-06-26T16:39:34;100020.63;;;20.51;72.69
63405;BME280;49541;57.840;12.306;2023-06-26T16:44:34;100019.81;;;21.09;72.59
63405;BME280;49541;57.840;12.306;2023-06-26T16:49:35;100023.81;;;21.45;72.08
63405;BME280;49541;57.840;12.306;2023-06-26T16:54:35;99993.19;;;21.44;67.63
63405;BME280;49541;57.840;12.306;2023-06-26T16:59:35;99984.75;;;21.59;69.84
63405;BME280;49541;57.840;12.306;2023-06-26T17:04:35;99960.69;;;21.51;68.51
63405;BME280;49541;57.840;12.306;2023-06-26T17:09:35;99942.53;;;21.77;64.68
63405;BME280;49541;57.840;12.306;2023-06-26T17:14:36;99956.94;;;21.96;66.94
63405;BME280;49541;57.840;12.306;2023-06-26T17:19:36;99965.13;;;22.14;66.66
63405;BME280;49541;57.840;12.306;2023-06-26T17:24:36;99971.22;;;21.84;65.22
63405;BME280;49541;57.840;12.306;2023-06-26T17:29:37;99989.06;;;22.17;65.58
63405;BME280;49541;57.840;12.306;2023-06-26T17:34:37;100005.53;;;22.22;65.53
63405;BME280;49541;57.840;12.306;2023-06-26T17:39:39;100020.59;;;22.12;65.40
63405;BME280;49541;57.840;12.306;2023-06-26T17:44:39;100018.66;;;21.68;66.51
63405;BME280;49541;57.840;12.306;2023-06-26T17:49:39;100021.53;;;21.42;67.78
63405;BME280;49541;57.840;12.306;2023-06-26T17:54:39;100025.91;;;22.00;67.44
63405;BME280;49541;57.840;12.306;2023-06-26T17:59:40;100019.69;;;22.24;67.14
63405;BME280;49541;57.840;12.306;2023-06-26T18:04:40;100018.41;;;22.27;66.59
63405;BME280;49541;57.840;12.306;2023-06-26T18:09:40;100007.41;;;22.40;68.02
63405;BME280;49541;57.840;12.306;2023-06-26T18:14:40;100005.00;;;22.07;65.24
63405;BME280;49541;57.840;12.306;2023-06-26T18:19:40;99995.00;;;22.69;66.65
63405;BME280;49541;57.840;12.306;2023-06-26T18:24:41;99998.28;;;22.90;66.41
63405;BME280;49541;57.840;12.306;2023-06-26T18:29:41;99997.84;;;22.75;66.79
63405;BME280;49541;57.840;12.306;2023-06-26T18:34:41;99983.38;;;22.62;65.31
63405;BME280;49541;57.840;12.306;2023-06-26T18:39:41;99990.25;;;22.21;67.51
63405;BME280;49541;57.840;12.306;2023-06-26T18:44:42;99987.97;;;22.25;65.45
63405;BME280;49541;57.840;12.306;2023-06-26T18:49:42;99982.34;;;22.26;66.73
63405;BME280;49541;57.840;12.306;2023-06-26T18:54:42;99966.97;;;21.95;65.92
63405;BME280;49541;57.840;12.306;2023-06-26T18:59:43;99967.22;;;22.12;67.47
63405;BME280;49541;57.840;12.306;2023-06-26T19:04:43;99967.91;;;22.07;69.42
63405;BME280;49541;57.840;12.306;2023-06-26T19:09:43;99965.75;;;21.91;70.22
63405;BME280;49541;57.840;12.306;2023-06-26T19:14:43;99968.72;;;21.83;67.62
63405;BME280;49541;57.840;12.306;2023-06-26T19:19:44;99971.50;;;21.51;65.70
63405;BME280;49541;57.840;12.306;2023-06-26T19:24:44;99970.28;;;21.97;67.45
63405;BME280;49541;57.840;12.306;2023-06-26T19:29:44;99971.81;;;22.12;69.23
63405;BME280;49541;57.840;12.306;2023-06-26T19:34:45;99975.34;;;22.37;69.82
63405;BME280;49541;57.840;12.306;2023-06-26T19:39:45;99955.66;;;21.80;72.78
63405;BME280;49541;57.840;12.306;2023-06-26T19:44:45;99947.78;;;21.97;71.92
63405;BME280;49541;57.840;12.306;2023-06-26T19:49:45;99939.53;;;21.35;73.47
63405;BME280;49541;57.840;12.306;2023-06-26T19:54:46;99952.03;;;21.29;74.47
63405;BME280;49541;57.840;12.306;2023-06-26T19:59:46;99947.34;;;20.79;75.77
63405;BME280;49541;57.840;12.306;2023-06-26T20:04:46;99944.59;;;20.21;80.36
63405;BME280;49541;57.840;12.306;2023-06-26T20:09:46;99948.22;;;19.75;82.99
63405;BME280;49541;57.840;12.306;2023-06-26T20:14:47;99953.72;;;19.13;85.87
63405;BME280;49541;57.840;12.306;2023-06-26T20:19:47;99954.88;;;18.42;89.91
63405;BME280;49541;57.840;12.306;2023-06-26T20:24:47;99954.72;;;18.09;91.61
63405;BME280;49541;57.840;12.306;2023-06-26T20:29:47;99959.16;;;18.30;92.86
63405;BME280;49541;57.840;12.306;2023-06-26T20:34:47;99953.34;;;18.20;91.12
63405;BME280;49541;57.840;12.306;2023-06-26T20:39:48;99949.28;;;18.03;92.10
63405;BME280;49541;57.840;12.306;2023-06-26T20:44:48;99942.31;;;17.87;93.00
63405;BME280;49541;57.840;12.306;2023-06-26T20:49:50;99938.16;;;17.84;93.55
63405;BME280;49541;57.840;12.306;2023-06-26T20:54:50;99942.72;;;17.84;93.14
63405;BME280;49541;57.840;12.306;2023-06-26T20:59:50;99932.72;;;17.77;93.80
63405;BME280;49541;57.840;12.306;2023-06-26T21:04:51;99936.03;;;17.79;93.81
63405;BME280;49541;57.840;12.306;2023-06-26T21:09:51;99949.97;;;17.40;94.72
63405;BME280;49541;57.840;12.306;2023-06-26T21:14:52;99965.41;;;17.31;96.26
63405;BME280;49541;57.840;12.306;2023-06-26T21:19:53;99960.50;;;17.35;94.81
63405;BME280;49541;57.840;12.306;2023-06-26T21:24:55;99953.94;;;17.44;95.04
63405;BME280;49541;57.840;12.306;2023-06-26T21:29:55;99963.03;;;17.86;92.84
63405;BME280;49541;57.840;12.306;2023-06-26T21:34:56;99974.75;;;17.57;93.47
63405;BME280;49541;57.840;12.306;2023-06-26T21:39:56;99968.63;;;17.63;93.40
63405;BME280;49541;57.840;12.306;2023-06-26T21:44:56;99957.56;;;17.79;93.21
63405;BME280;49541;57.840;12.306;2023-06-26T21:49:56;99958.72;;;18.20;90.34
63405;BME280;49541;57.840;12.306;2023-06-26T21:54:56;99958.72;;;18.20;87.06
63405;BME280;49541;57.840;12.306;2023-06-26T21:59:57;99958.78;;;17.98;87.10
63405;BME280;49541;57.840;12.306;2023-06-26T22:04:57;99957.22;;;17.61;88.13
63405;BME280;49541;57.840;12.306;2023-06-26T22:09:57;99959.31;;;17.66;87.59
63405;BME280;49541;57.840;12.306;2023-06-26T22:14:57;99965.59;;;17.73;87.44
63405;BME280;49541;57.840;12.306;2023-06-26T22:19:58;99975.09;;;17.47;88.78
63405;BME280;49541;57.840;12.306;2023-06-26T22:24:58;99975.09;;;17.04;90.95
63405;BME280;49541;57.840;12.306;2023-06-26T22:29:59;99980.31;;;17.49;89.30
63405;BME280;49541;57.840;12.306;2023-06-26T22:34:59;99978.38;;;17.43;89.33
63405;BME280;49541;57.840;12.306;2023-06-26T22:39:59;99972.22;;;17.06;90.76
63405;BME280;49541;57.840;12.306;2023-06-26T22:44:59;99986.19;;;17.01;91.32
63405;BME280;49541;57.840;12.306;2023-06-26T22:50:00;99997.81;;;17.02;91.07
63405;BME280;49541;57.840;12.306;2023-06-26T22:55:00;99995.19;;;17.08;90.84
63405;BME280;49541;57.840;12.306;2023-06-26T23:00:00;99992.25;;;17.25;89.67
63405;BME280;49541;57.840;12.306;2023-06-26T23:05:01;99987.25;;;17.22;88.65
63405;BME280;49541;57.840;12.306;2023-06-26T23:10:03;99994.94;;;17.25;89.16
63405;BME280;49541;57.840;12.306;2023-06-26T23:15:03;99981.38;;;17.33;88.54
63405;BME280;49541;57.840;12.306;2023-06-26T23:20:03;99977.69;;;17.34;88.14
63405;BME280;49541;57.840;12.306;2023-06-26T23:25:05;99974.47;;;17.24;88.09
63405;BME280;49541;57.840;12.306;2023-06-26T23:30:06;99964.59;;;17.31;87.49
63405;BME280;49541;57.840;12.306;2023-06-26T23:35:07;99962.66;;;17.25;87.42
63405;BME280;49541;57.840;12.306;2023-06-26T23:40:08;99953.72;;;17.17;88.13
63405;BME280;49541;57.840;12.306;2023-06-26T23:45:09;99942.69;;;17.12;87.78
63405;BME280;49541;57.840;12.306;2023-06-26T23:50:10;99940.53;;;16.86;89.25
63405;BME280;49541;57.840;12.306;2023-06-26T23:55:11;99928.56;;;16.52;91.43
